Time;durP1;ratioP1;P1;durP2;ratioP2;P2;SDS_P1;SDS_P2;PMS_P1;PMS_P2;Temp;Humidity;BMP_temperature;BMP_pressure;BME280_temperature;BME280_humidity;BME280_pressure;Samples;Min_cycle;Max_cycle;Signal;HPM_P1;HPM_P2
2023/03/10 00:01:11;;;;;;;;;6.00;6.00;;;;;20.53;51.21;99218.03;110013;1260;19659;-38
2023/03/10 00:03:39;;;;;;;;;6.00;6.00;;;;;20.53;51.39;99222.35;110012;1266;18716;-38
2023/03/10 00:06:06;;;;;;;;;6.00;6.00;;;;;20.52;51.20;99218.48;110010;1266;18782;-38
2023/03/10 00:08:34;;;;;;;;;8.00;5.00;;;;;20.52;51.17;99218.32;110021;1266;20713;-38
2023/03/10 00:11:01;;;;;;;;;6.00;6.00;;;;;20.52;51.05;99213.43;110026;1266;19576;-38
2023/03/10 00:13:29;;;;;;;;;4.00;4.00;;;;;20.52;51.13;99209.08;110056;1252;20417;-38
2023/03/10 00:15:56;;;;;;;;;6.50;6.50;;;;;20.51;51.26;99201.73;110013;1266;19332;-38
2023/03/10 00:18:23;;;;;;;;;5.00;4.00;;;;;20.51;51.38;99201.58;110032;1266;20122;-38
2023/03/10 00:20:51;;;;;;;;;7.00;5.00;;;;;20.51;51.07;99198.68;109999;1266;19973;-38
2023/03/10 00:23:19;;;;;;;;;4.00;4.00;;;;;20.51;50.93;99193.75;110040;1266;20806;-38
2023/03/10 00:25:46;;;;;;;;;6.00;5.00;;;;;20.51;51.18;99188.84;110045;1266;18449;-38
2023/03/10 00:28:14;;;;;;;;;5.33;5.33;;;;;20.50;51.00;99180.85;110031;1266;22514;-38
2023/03/10 00:30:42;;;;;;;;;4.50;4.50;;;;;20.50;50.97;99172.17;110040;1266;19337;-38
2023/03/10 00:33:09;;;;;;;;;7.00;6.00;;;;;20.49;51.23;99171.30;110028;1250;18711;-38
2023/03/10 00:35:36;;;;;;;;;4.67;4.00;;;;;20.51;50.86;99172.92;109997;1253;21211;-38
2023/03/10 00:38:04;;;;;;;;;7.00;7.00;;;;;20.50;50.90;99174.27;110026;1254;20870;-38
2023/03/10 00:40:31;;;;;;;;;5.00;4.00;;;;;20.50;50.99;99169.25;110049;1266;19573;-38
2023/03/10 00:42:59;;;;;;;;;5.50;4.00;;;;;20.50;50.85;99165.06;110003;1266;18612;-38
2023/03/10 00:45:26;;;;;;;;;6.00;4.00;;;;;20.50;50.98;99167.45;110002;1254;20618;-38
2023/03/10 00:47:54;;;;;;;;;7.00;7.00;;;;;20.49;50.96;99167.32;110024;1266;19413;-39
2023/03/10 00:50:21;;;;;;;;;4.00;4.00;;;;;20.50;50.78;99163.59;109960;1266;19938;-38
2023/03/10 00:52:50;;;;;;;;;4.00;4.00;;;;;20.50;50.85;99164.89;109977;1266;20858;-37
2023/03/10 00:55:17;;;;;;;;;6.33;4.67;;;;;20.50;50.71;99156.73;109943;1254;22949;-37
2023/03/10 00:57:44;;;;;;;;;4.00;4.00;;;;;20.50;50.87;99147.65;109952;1266;20918;-38
2023/03/10 01:00:14;;;;;;;;;6.00;6.00;;;;;20.50;50.82;99136.92;110021;1254;22085;-39
2023/03/10 01:02:42;;;;;;;;;4.00;3.00;;;;;20.49;50.88;99134.88;110016;1266;19009;-39
2023/03/10 01:05:09;;;;;;;;;4.00;4.00;;;;;20.50;50.75;99132.83;109976;1266;22044;-38
2023/03/10 01:07:37;;;;;;;;;4.00;4.00;;;;;20.49;50.71;99131.79;110024;1266;20698;-38
2023/03/10 01:10:04;;;;;;;;;7.00;6.33;;;;;20.50;50.83;99127.21;110043;1266;20141;-38
2023/03/10 01:12:32;;;;;;;;;3.00;3.00;;;;;20.50;50.71;99126.63;110019;1266;18513;-38
2023/03/10 01:14:59;;;;;;;;;6.00;4.00;;;;;20.49;50.69;99116.63;110017;1250;21049;-37
2023/03/10 01:17:27;;;;;;;;;6.00;6.00;;;;;20.49;50.79;99101.23;109976;1251;22774;-38
2023/03/10 01:19:54;;;;;;;;;4.00;4.00;;;;;20.49;50.81;99093.19;110030;1253;20220;-38
2023/03/10 01:22:21;;;;;;;;;4.00;4.00;;;;;20.49;50.63;99081.96;110008;1253;20811;-38
2023/03/10 01:24:49;;;;;;;;;4.00;4.00;;;;;20.48;50.64;99075.89;110024;1250;19596;-39
2023/03/10 01:27:17;;;;;;;;;6.00;6.00;;;;;20.48;50.72;99078.95;110021;1266;20020;-38
2023/03/10 01:29:44;;;;;;;;;4.00;4.00;;;;;20.48;50.54;99075.23;110025;1266;21059;-38
2023/03/10 01:32:12;;;;;;;;;5.00;4.00;;;;;20.48;50.60;99075.52;110017;1254;20935;-38
2023/03/10 01:34:39;;;;;;;;;6.00;6.00;;;;;20.47;50.67;99072.17;110024;1266;19708;-38
2023/03/10 01:37:06;;;;;;;;;4.00;4.00;;;;;20.48;50.54;99066.86;110022;1266;19352;-38
2023/03/10 01:39:34;;;;;;;;;5.00;5.00;;;;;20.48;50.42;99056.73;110040;1266;18458;-38
2023/03/10 01:42:01;;;;;;;;;6.00;6.00;;;;;20.46;50.57;99048.40;110016;1266;19934;-38
2023/03/10 01:44:29;;;;;;;;;4.00;4.00;;;;;20.47;50.71;99050.66;110017;1266;19383;-40
2023/03/10 01:46:57;;;;;;;;;4.00;4.00;;;;;20.46;50.63;99042.95;110010;1250;22726;-38
2023/03/10 01:49:25;;;;;;;;;4.00;4.00;;;;;20.47;50.50;99046.85;110067;1266;21762;-38
2023/03/10 01:51:52;;;;;;;;;4.00;4.00;;;;;20.46;50.49;99044.42;110042;1251;20849;-39
2023/03/10 01:54:20;;;;;;;;;4.00;4.00;;;;;20.45;50.45;99037.84;110029;1266;19771;-39
2023/03/10 01:56:47;;;;;;;;;5.33;4.00;;;;;20.46;50.65;99043.54;109999;1266;18666;-39
2023/03/10 01:59:15;;;;;;;;;4.00;4.00;;;;;20.46;50.54;99047.02;109908;1266;21066;-37
2023/03/10 02:01:42;;;;;;;;;4.00;4.00;;;;;20.45;50.28;99038.33;110007;1266;18530;-38
2023/03/10 02:04:10;;;;;;;;;4.00;4.00;;;;;20.45;50.51;99028.29;110063;1266;20226;-37
2023/03/10 02:06:37;;;;;;;;;4.00;4.00;;;;;20.46;50.38;99018.49;109991;1266;19899;-37
2023/03/10 02:09:04;;;;;;;;;4.00;4.00;;;;;20.45;50.59;99008.31;109971;1266;19560;-38
2023/03/10 02:11:32;;;;;;;;;4.00;4.00;;;;;20.45;50.42;98993.08;110018;1266;18671;-38
2023/03/10 02:13:59;;;;;;;;;4.00;4.00;;;;;20.45;50.37;98977.11;110029;1266;19647;-39
2023/03/10 02:16:27;;;;;;;;;4.00;4.00;;;;;20.45;50.30;98988.31;110026;1266;22235;-39
2023/03/10 02:18:54;;;;;;;;;4.00;3.00;;;;;20.45;50.39;98984.54;110014;1261;20041;-42
2023/03/10 02:21:22;;;;;;;;;3.00;3.00;;;;;20.45;50.31;98987.92;110035;1253;21018;-39
2023/03/10 02:23:49;;;;;;;;;6.00;4.00;;;;;20.44;50.05;98974.98;109992;1250;22613;-39
2023/03/10 02:26:16;;;;;;;;;4.00;4.00;;;;;20.44;50.27;98975.95;110032;1266;18531;-39
2023/03/10 02:28:44;;;;;;;;;;;;;;;20.44;50.25;98974.27;110031;1266;21886;-39
2023/03/10 02:31:11;;;;;;;;;4.00;4.00;;;;;20.45;50.19;98969.34;110031;1251;18702;-39
2023/03/10 02:33:39;;;;;;;;;3.00;3.00;;;;;20.44;50.24;98974.15;110044;1266;20314;-41
2023/03/10 02:36:06;;;;;;;;;5.33;5.33;;;;;20.44;50.42;98967.61;110006;1250;22410;-39
2023/03/10 02:38:34;;;;;;;;;6.00;4.00;;;;;20.43;50.34;98966.66;110002;1266;19566;-39
2023/03/10 02:41:01;;;;;;;;;4.00;4.00;;;;;20.43;50.26;98969.16;109997;1253;20060;-39
2023/03/10 02:43:29;;;;;;;;;6.00;4.00;;;;;20.43;50.39;98959.37;109940;1254;22723;-39
2023/03/10 02:45:56;;;;;;;;;6.00;6.00;;;;;20.42;50.44;98953.61;109981;1253;21726;-39
2023/03/10 02:48:24;;;;;;;;;6.00;4.00;;;;;20.42;50.33;98952.77;109950;1260;18720;-39
2023/03/10 02:50:51;;;;;;;;;6.00;6.00;;;;;20.42;50.31;98955.70;109998;1250;20758;-39
2023/03/10 02:53:19;;;;;;;;;6.00;4.00;;;;;20.43;50.20;98949.08;110004;1254;19890;-39
2023/03/10 02:55:46;;;;;;;;;5.00;3.50;;;;;20.42;50.25;98937.52;110052;1266;19995;-39
2023/03/10 02:58:14;;;;;;;;;6.00;6.00;;;;;20.42;50.31;98932.26;110030;1252;20756;-39
2023/03/10 03:00:41;;;;;;;;;4.00;4.00;;;;;20.42;50.19;98923.89;110047;1266;20831;-39
2023/03/10 03:03:08;;;;;;;;;6.50;6.00;;;;;20.43;50.34;98919.91;110049;1266;19969;-39
2023/03/10 03:05:36;;;;;;;;;4.00;3.67;;;;;20.42;50.23;98917.98;110028;1253;22052;-39
2023/03/10 03:08:03;;;;;;;;;6.00;4.00;;;;;20.42;50.31;98907.30;110026;1250;20782;-39
2023/03/10 03:10:31;;;;;;;;;6.50;6.00;;;;;20.42;50.19;98900.94;110031;1250;21121;-39
2023/03/10 03:12:58;;;;;;;;;6.00;4.00;;;;;20.41;50.23;98888.98;110032;1254;20658;-40
2023/03/10 03:15:26;;;;;;;;;3.00;3.00;;;;;20.42;50.28;98878.67;110038;1266;22731;-39
2023/03/10 03:17:54;;;;;;;;;3.00;3.00;;;;;20.40;50.23;98875.42;110049;1266;18663;-39
2023/03/10 03:20:21;;;;;;;;;4.00;4.00;;;;;20.41;50.11;98868.18;110025;1266;21886;-38
2023/03/10 03:22:49;;;;;;;;;4.00;4.00;;;;;20.41;50.39;98867.59;110024;1266;18874;-39
2023/03/10 03:25:16;;;;;;;;;3.50;3.50;;;;;20.41;50.22;98865.92;110031;1266;22238;-39
2023/03/10 03:27:44;;;;;;;;;4.00;4.00;;;;;20.41;50.27;98866.47;109982;1266;19715;-40
2023/03/10 03:30:11;;;;;;;;;4.00;4.00;;;;;20.40;50.23;98858.05;110046;1254;19696;-39
2023/03/10 03:32:38;;;;;;;;;5.33;4.00;;;;;20.40;50.24;98855.67;110018;1266;20254;-39
2023/03/10 03:35:06;;;;;;;;;4.00;4.00;;;;;20.41;50.07;98852.70;110041;1266;19379;-39
2023/03/10 03:37:33;;;;;;;;;4.00;4.00;;;;;20.40;50.07;98855.72;110038;1259;18417;-39
2023/03/10 03:40:01;;;;;;;;;4.00;4.00;;;;;20.40;50.22;98854.29;109978;1266;21759;-39
2023/03/10 03:42:28;;;;;;;;;4.00;4.00;;;;;20.40;50.19;98850.98;109959;1266;19565;-39
2023/03/10 03:44:56;;;;;;;;;4.00;4.00;;;;;20.40;50.27;98843.95;109973;1266;19600;-39
2023/03/10 03:47:23;;;;;;;;;4.00;4.00;;;;;20.40;50.01;98833.57;109924;1250;20660;-39
2023/03/10 03:49:51;;;;;;;;;4.00;3.00;;;;;20.40;50.17;98828.92;109968;1266;19315;-39
2023/03/10 03:52:18;;;;;;;;;3.00;3.00;;;;;20.39;50.28;98824.23;110039;1266;19626;-39
2023/03/10 03:54:45;;;;;;;;;6.00;6.00;;;;;20.39;50.20;98822.26;110022;1266;18638;-39
2023/03/10 03:57:13;;;;;;;;;4.00;4.00;;;;;20.39;50.16;98816.70;110000;1266;19449;-39
2023/03/10 03:59:40;;;;;;;;;4.00;4.00;;;;;20.39;50.25;98811.42;110022;1261;19519;-39
2023/03/10 04:02:08;;;;;;;;;6.00;6.00;;;;;20.39;50.11;98810.46;110009;1266;19171;-38
2023/03/10 04:04:35;;;;;;;;;4.00;4.00;;;;;20.38;50.08;98806.98;110039;1266;19407;-38
2023/03/10 04:07:03;;;;;;;;;3.00;3.00;;;;;20.38;49.87;98804.90;110010;1266;20879;-38
2023/03/10 04:09:30;;;;;;;;;4.00;4.00;;;;;20.38;50.05;98803.11;110025;1251;21363;-38
2023/03/10 04:11:58;;;;;;;;;4.00;4.00;;;;;20.38;50.16;98791.46;110010;1266;19345;-39
2023/03/10 04:14:25;;;;;;;;;6.00;4.00;;;;;20.37;50.06;98780.84;110046;1266;19663;-40
2023/03/10 04:16:53;;;;;;;;;6.00;6.00;;;;;20.37;50.13;98774.36;110026;1266;18623;-39
2023/03/10 04:19:20;;;;;;;;;6.00;6.00;;;;;20.37;50.05;98769.34;110025;1254;20803;-39
2023/03/10 04:21:47;;;;;;;;;4.00;4.00;;;;;20.38;50.05;98773.41;109919;1254;19659;-39
2023/03/10 04:24:15;;;;;;;;;4.00;4.00;;;;;20.39;50.08;98773.75;109997;1266;21944;-39
2023/03/10 04:26:42;;;;;;;;;3.00;3.00;;;;;20.37;50.09;98759.79;110020;1266;19227;-39
2023/03/10 04:29:10;;;;;;;;;4.00;4.00;;;;;20.36;50.16;98754.31;110034;1253;19582;-38
2023/03/10 04:31:37;;;;;;;;;7.00;6.00;;;;;20.37;50.07;98744.77;110041;1266;19990;-39
2023/03/10 04:34:05;;;;;;;;;5.00;4.00;;;;;20.37;49.98;98739.48;109989;1266;21126;-39
2023/03/10 04:36:32;;;;;;;;;4.00;4.00;;;;;20.38;50.06;98736.89;110023;1266;19762;-39
2023/03/10 04:38:59;;;;;;;;;4.00;4.00;;;;;20.37;49.91;98730.08;110042;1252;18690;-39
2023/03/10 04:41:27;;;;;;;;;3.00;3.00;;;;;20.37;50.13;98722.71;110041;1260;19378;-39
2023/03/10 04:43:54;;;;;;;;;3.00;3.00;;;;;20.37;49.96;98720.20;110020;1261;18557;-39
2023/03/10 04:46:22;;;;;;;;;4.00;4.00;;;;;20.37;50.04;98715.42;110034;1266;22750;-39
2023/03/10 04:48:50;;;;;;;;;3.00;3.00;;;;;20.36;50.11;98707.83;110006;1266;20756;-39
2023/03/10 04:51:18;;;;;;;;;4.00;4.00;;;;;20.36;50.16;98705.60;110027;1266;18227;-39
2023/03/10 04:53:45;;;;;;;;;4.00;4.00;;;;;20.36;49.93;98698.36;110052;1266;18526;-39
2023/03/10 04:56:12;;;;;;;;;4.00;4.00;;;;;20.36;50.06;98698.58;110030;1250;20805;-38
2023/03/10 04:58:40;;;;;;;;;4.00;4.00;;;;;20.37;49.91;98694.80;110000;1253;19634;-38
2023/03/10 05:01:07;;;;;;;;;4.00;4.00;;;;;20.36;49.92;98684.02;110034;1266;20545;-38
2023/03/10 05:03:35;;;;;;;;;4.00;4.00;;;;;20.36;50.05;98674.42;110033;1266;19349;-38
2023/03/10 05:06:02;;;;;;;;;4.00;4.00;;;;;20.36;50.20;98666.05;110057;1250;19973;-38
2023/03/10 05:08:30;;;;;;;;;4.33;3.67;;;;;20.35;50.17;98662.80;109985;1266;22233;-38
2023/03/10 05:10:57;;;;;;;;;3.00;3.00;;;;;20.35;49.97;98661.88;110048;1266;22322;-40
2023/03/10 05:13:25;;;;;;;;;4.00;4.00;;;;;20.35;50.13;98661.08;110001;1266;20174;-40
2023/03/10 05:15:52;;;;;;;;;6.00;5.00;;;;;20.35;49.99;98658.90;110038;1266;18608;-38
2023/03/10 05:18:20;;;;;;;;;4.00;4.00;;;;;20.35;49.97;98659.99;110046;1266;20739;-38
2023/03/10 05:20:47;;;;;;;;;4.00;4.00;;;;;20.35;49.92;98659.65;110045;1260;22120;-38
2023/03/10 05:23:15;;;;;;;;;6.00;4.00;;;;;20.34;50.00;98652.13;110006;1266;18704;-40
2023/03/10 05:25:42;;;;;;;;;4.00;4.00;;;;;20.34;49.99;98652.92;110051;1266;20767;-39
2023/03/10 05:28:10;;;;;;;;;6.00;6.00;;;;;20.34;49.92;98642.04;110029;1266;18323;-39
2023/03/10 05:30:37;;;;;;;;;6.00;6.00;;;;;20.34;50.03;98638.95;110040;1266;19962;-39
2023/03/10 05:33:04;;;;;;;;;6.00;6.00;;;;;20.34;50.09;98630.91;110025;1266;20727;-39
2023/03/10 05:35:32;;;;;;;;;6.00;6.00;;;;;20.34;49.91;98624.52;110016;1250;19881;-39
2023/03/10 05:37:59;;;;;;;;;4.00;4.00;;;;;20.33;50.03;98620.36;110007;1266;21522;-39
2023/03/10 05:40:27;;;;;;;;;4.00;4.00;;;;;20.34;50.06;98607.77;110021;1266;19246;-39
2023/03/10 05:42:54;;;;;;;;;4.00;4.00;;;;;20.33;49.86;98600.08;110017;1266;19667;-39
2023/03/10 05:45:22;;;;;;;;;6.00;6.00;;;;;20.33;50.03;98595.91;110024;1250;19939;-39
2023/03/10 05:47:49;;;;;;;;;6.00;6.00;;;;;20.34;49.97;98597.50;110025;1250;21204;-39
2023/03/10 05:50:17;;;;;;;;;7.00;6.00;;;;;20.33;49.78;98591.91;110029;1266;19519;-39
2023/03/10 05:52:44;;;;;;;;;4.00;4.00;;;;;20.33;49.94;98593.38;110026;1266;21746;-39
2023/03/10 05:55:11;;;;;;;;;6.00;4.00;;;;;20.34;49.84;98587.63;110033;1266;20922;-39
2023/03/10 05:57:39;;;;;;;;;6.00;6.00;;;;;20.36;49.54;98581.59;110025;1260;20936;-39
2023/03/10 06:00:09;;;;;;;;;7.00;7.00;;;;;20.38;49.94;98578.45;110011;1254;20107;-39
2023/03/10 06:02:37;;;;;;;;;6.00;6.00;;;;;20.43;49.83;98570.54;110052;1251;22190;-39
2023/03/10 06:05:05;;;;;;;;;13.00;12.00;;;;;20.47;50.99;98566.57;110027;1252;19761;-39
2023/03/10 06:07:32;;;;;;;;;28.00;27.00;;;;;20.53;51.61;98561.95;109987;1266;22728;-39
2023/03/10 06:10:00;;;;;;;;;66.00;52.50;;;;;20.55;52.34;98555.48;110026;1254;20734;-39
2023/03/10 06:12:27;;;;;;;;;66.00;56.00;;;;;20.57;53.36;98554.41;110033;1259;18757;-39
2023/03/10 06:14:55;;;;;;;;;48.00;45.00;;;;;20.59;54.37;98550.54;110013;1266;20214;-39
2023/03/10 06:17:22;;;;;;;;;40.00;39.00;;;;;20.61;54.60;98547.58;110042;1254;20829;-39
2023/03/10 06:19:51;;;;;;;;;38.00;35.00;;;;;20.60;54.64;98537.27;110044;1266;18622;-38
2023/03/10 06:22:18;;;;;;;;;39.50;34.50;;;;;20.60;54.48;98538.73;110000;1266;22175;-39
2023/03/10 06:24:46;;;;;;;;;32.00;31.00;;;;;20.60;54.21;98529.76;110009;1266;19444;-39
2023/03/10 06:27:13;;;;;;;;;32.00;29.00;;;;;20.58;54.29;98524.21;110032;1250;22005;-39
2023/03/10 06:29:41;;;;;;;;;24.00;22.00;;;;;20.55;53.63;98520.52;110002;1266;18719;-39
2023/03/10 06:32:08;;;;;;;;;25.50;22.50;;;;;20.53;53.52;98519.34;109998;1266;19383;-39
2023/03/10 06:34:36;;;;;;;;;26.00;23.00;;;;;20.52;53.46;98518.23;110015;1253;19945;-39
2023/03/10 06:37:03;;;;;;;;;20.00;19.00;;;;;20.51;53.42;98509.44;110023;1266;20013;-39
2023/03/10 06:39:30;;;;;;;;;22.00;19.00;;;;;20.49;53.46;98508.71;110011;1266;19514;-38
2023/03/10 06:41:58;;;;;;;;;18.00;18.00;;;;;20.48;53.35;98514.20;109997;1266;19930;-38
2023/03/10 06:44:25;;;;;;;;;22.00;21.67;;;;;20.48;53.31;98514.52;109915;1266;20096;-39
2023/03/10 06:46:53;;;;;;;;;18.00;18.00;;;;;20.50;53.24;98508.48;109986;1266;19363;-38
2023/03/10 06:49:20;;;;;;;;;19.00;16.00;;;;;20.52;52.73;98500.92;109969;1266;22761;-39
2023/03/10 06:51:47;;;;;;;;;18.00;16.00;;;;;20.53;52.72;98504.39;109894;1266;20093;-39
2023/03/10 06:54:15;;;;;;;;;19.00;18.00;;;;;20.51;52.49;98496.87;109886;1266;19287;-39
2023/03/10 06:56:42;;;;;;;;;21.00;19.00;;;;;20.50;52.77;98506.35;109992;1250;19051;-39
2023/03/10 06:59:10;;;;;;;;;17.00;16.00;;;;;20.49;52.70;98514.44;109942;1266;20186;-37
2023/03/10 07:01:37;;;;;;;;;16.67;15.67;;;;;20.48;52.42;98502.16;109995;1261;19680;-38
2023/03/10 07:04:05;;;;;;;;;16.00;15.67;;;;;20.46;52.48;98500.55;109979;1266;18811;-39
2023/03/10 07:06:33;;;;;;;;;16.50;14.00;;;;;20.46;52.75;98506.36;110074;1266;18916;-39
2023/03/10 07:09:00;;;;;;;;;16.00;15.00;;;;;20.45;52.77;98501.96;110030;1252;20779;-39
2023/03/10 07:11:28;;;;;;;;;16.00;16.00;;;;;20.45;52.68;98490.40;110013;1250;20167;-39
2023/03/10 07:13:55;;;;;;;;;15.00;15.00;;;;;20.44;52.59;98478.77;109970;1266;20074;-39
2023/03/10 07:16:23;;;;;;;;;18.00;15.00;;;;;20.44;52.73;98476.55;109968;1266;20790;-39
2023/03/10 07:18:50;;;;;;;;;12.50;12.50;;;;;20.44;52.60;98474.63;109984;1266;18575;-39
2023/03/10 07:21:18;;;;;;;;;14.00;13.00;;;;;20.43;52.62;98476.77;109989;1266;19987;-39
2023/03/10 07:23:45;;;;;;;;;13.00;11.00;;;;;20.42;52.55;98479.55;109969;1266;20841;-38
2023/03/10 07:26:13;;;;;;;;;13.67;13.00;;;;;20.43;52.64;98484.73;109965;1266;18717;-38
2023/03/10 07:28:40;;;;;;;;;12.00;12.00;;;;;20.42;52.33;98478.13;110008;1250;20209;-39
2023/03/10 07:31:08;;;;;;;;;10.00;10.00;;;;;20.41;52.41;98479.91;110018;1266;20756;-40
2023/03/10 07:33:35;;;;;;;;;12.00;12.00;;;;;20.41;52.26;98488.23;110012;1266;19952;-39
2023/03/10 07:36:03;;;;;;;;;13.67;12.67;;;;;20.41;52.29;98488.79;110028;1266;18728;-38
2023/03/10 07:38:30;;;;;;;;;11.00;10.00;;;;;20.41;52.39;98484.47;110026;1266;20743;-38
2023/03/10 07:40:57;;;;;;;;;10.67;10.67;;;;;20.40;52.28;98484.27;110006;1254;22476;-39
2023/03/10 07:43:25;;;;;;;;;15.00;13.00;;;;;20.40;52.17;98486.46;110018;1250;20044;-39
2023/03/10 07:45:52;;;;;;;;;13.00;13.00;;;;;20.40;52.12;98486.78;110020;1250;19367;-39
2023/03/10 07:48:20;;;;;;;;;16.00;13.00;;;;;20.40;52.05;98483.73;110035;1266;21620;-39
2023/03/10 07:50:47;;;;;;;;;11.00;10.00;;;;;20.40;52.05;98482.81;110040;1260;18905;-39
2023/03/10 07:53:15;;;;;;;;;10.00;10.00;;;;;20.39;51.86;98474.66;110020;1253;22721;-39
2023/03/10 07:55:42;;;;;;;;;12.00;10.00;;;;;20.42;52.00;98470.40;109982;1254;20026;-39
2023/03/10 07:58:13;;;;;;;;;12.00;12.00;;;;;20.41;51.61;98463.04;110013;1266;18702;-39
2023/03/10 08:00:41;;;;;;;;;12.00;11.00;;;;;20.43;51.65;98452.63;109998;1266;20738;-39
2023/03/10 08:03:08;;;;;;;;;9.50;9.50;;;;;20.44;51.87;98444.08;110025;1266;19992;-39
2023/03/10 08:05:35;;;;;;;;;9.00;9.00;;;;;20.48;52.31;98435.23;110012;1266;20077;-39
2023/03/10 08:08:03;;;;;;;;;12.00;10.00;;;;;20.50;52.84;98435.98;110005;1266;20689;-40
2023/03/10 08:10:31;;;;;;;;;13.00;13.00;;;;;20.50;53.07;98443.39;109994;1266;19803;-40
2023/03/10 08:12:58;;;;;;;;;11.00;10.00;;;;;20.50;53.10;98440.33;109995;1266;18743;-39
2023/03/10 08:15:26;;;;;;;;;10.00;7.00;;;;;20.48;53.35;98432.09;109997;1266;20873;-38
2023/03/10 08:17:53;;;;;;;;;9.00;9.00;;;;;20.49;53.09;98427.96;109925;1266;19950;-39
2023/03/10 08:20:20;;;;;;;;;9.00;9.00;;;;;20.50;53.34;98424.84;109991;1250;18632;-39
2023/03/10 08:22:48;;;;;;;;;10.00;9.50;;;;;20.51;53.34;98420.73;110060;1250;19386;-40
2023/03/10 08:25:15;;;;;;;;;10.00;10.00;;;;;20.51;53.34;98419.27;109702;1266;387955;-39
2023/03/10 08:27:43;;;;;;;;;13.00;12.00;;;;;20.49;53.37;98410.84;110040;1251;20171;-39
2023/03/10 08:30:10;;;;;;;;;13.00;10.00;;;;;20.47;53.27;98405.94;110016;1252;22328;-40
2023/03/10 08:32:38;;;;;;;;;12.00;10.00;;;;;20.47;53.11;98403.55;110043;1250;22608;-40
2023/03/10 08:35:06;;;;;;;;;15.00;13.00;;;;;20.47;53.01;98397.77;110036;1266;20185;-39
2023/03/10 08:37:33;;;;;;;;;13.00;10.00;;;;;20.49;52.84;98393.89;110024;1266;19337;-39
2023/03/10 08:40:01;;;;;;;;;16.00;13.00;;;;;20.48;52.57;98392.08;110026;1266;22935;-38
2023/03/10 08:42:28;;;;;;;;;11.00;11.00;;;;;20.45;52.33;98394.48;109998;1266;20186;-39
2023/03/10 08:44:56;;;;;;;;;15.00;13.00;;;;;20.42;52.08;98391.77;110024;1266;19349;-39
2023/03/10 08:47:23;;;;;;;;;18.00;15.00;;;;;20.42;51.95;98388.35;109964;1251;18543;-40
2023/03/10 08:49:51;;;;;;;;;15.50;15.00;;;;;20.43;51.80;98381.39;109980;1254;21390;-39
2023/03/10 08:52:18;;;;;;;;;15.00;15.00;;;;;20.43;51.67;98382.05;110010;1250;19386;-39
2023/03/10 08:54:45;;;;;;;;;16.00;13.00;;;;;20.43;51.10;98381.35;110056;1266;18591;-39
2023/03/10 08:57:13;;;;;;;;;15.00;13.00;;;;;20.44;51.28;98378.86;110004;1266;22650;-40
2023/03/10 08:59:40;;;;;;;;;16.00;15.00;;;;;20.45;51.27;98373.20;109974;1250;21838;-39
2023/03/10 09:02:08;;;;;;;;;16.00;15.00;;;;;20.47;51.10;98372.29;110001;1266;20183;-40
2023/03/10 09:04:35;;;;;;;;;15.00;13.00;;;;;20.48;51.05;98376.79;109894;1250;21470;-41
2023/03/10 09:07:03;;;;;;;;;14.00;13.00;;;;;20.47;51.01;98372.20;109917;1266;19368;-40
2023/03/10 09:09:30;;;;;;;;;12.00;12.00;;;;;20.48;51.01;98366.23;109924;1260;19113;-39
2023/03/10 09:11:58;;;;;;;;;13.00;13.00;;;;;20.48;51.18;98369.29;110012;1266;18715;-40
2023/03/10 09:14:25;;;;;;;;;15.00;13.00;;;;;20.49;51.61;98372.95;110028;1266;22047;-40
2023/03/10 09:16:52;;;;;;;;;16.00;15.00;;;;;20.49;51.90;98364.58;110027;1251;18552;-39
2023/03/10 09:19:20;;;;;;;;;14.00;12.00;;;;;20.50;51.86;98358.92;110014;1266;20060;-39
2023/03/10 09:21:47;;;;;;;;;18.00;15.00;;;;;20.50;51.86;98363.77;110030;1266;20567;-38
2023/03/10 09:24:16;;;;;;;;;13.00;12.50;;;;;20.51;52.27;98364.39;110006;1266;18566;-40
2023/03/10 09:26:44;;;;;;;;;16.00;15.50;;;;;20.49;52.45;98359.06;110049;1266;18992;-41
2023/03/10 09:29:11;;;;;;;;;15.00;12.00;;;;;20.49;52.64;98356.52;110005;1260;19482;-40
2023/03/10 09:31:39;;;;;;;;;13.00;13.00;;;;;20.50;53.14;98351.46;110002;1266;19907;-40
2023/03/10 09:34:07;;;;;;;;;18.00;14.00;;;;;20.52;53.00;98350.02;110005;1250;20038;-39
2023/03/10 09:36:34;;;;;;;;;18.00;15.00;;;;;20.56;53.18;98347.06;110015;1266;20956;-40
2023/03/10 09:39:02;;;;;;;;;15.00;15.00;;;;;20.58;53.67;98346.67;110030;1266;18548;-40
2023/03/10 09:41:29;;;;;;;;;15.00;13.00;;;;;20.57;53.69;98343.88;110075;1266;20249;-40
2023/03/10 09:43:57;;;;;;;;;13.00;12.00;;;;;20.58;54.01;98347.34;110009;1266;19378;-40
2023/03/10 09:46:24;;;;;;;;;12.00;12.00;;;;;20.58;53.82;98341.05;110048;1266;18598;-39
2023/03/10 09:48:52;;;;;;;;;16.00;13.00;;;;;20.57;54.02;98336.42;110031;1266;19967;-39
2023/03/10 09:51:19;;;;;;;;;11.00;11.00;;;;;20.59;54.28;98333.48;110025;1250;20741;-40
2023/03/10 09:53:47;;;;;;;;;11.00;11.00;;;;;20.59;54.17;98335.60;110015;1266;18925;-39
2023/03/10 09:56:14;;;;;;;;;13.00;12.00;;;;;20.59;54.15;98328.46;110000;1266;22053;-41
2023/03/10 09:58:42;;;;;;;;;16.00;13.50;;;;;20.58;54.13;98326.88;110027;1266;19342;-39
2023/03/10 10:01:09;;;;;;;;;13.00;11.00;;;;;20.56;54.03;98322.83;110054;1266;18585;-40
2023/03/10 10:03:36;;;;;;;;;13.00;11.00;;;;;20.56;54.03;98320.60;110031;1250;22577;-40
2023/03/10 10:06:04;;;;;;;;;12.50;11.50;;;;;20.57;53.92;98322.95;110046;1254;20821;-40
2023/03/10 10:08:31;;;;;;;;;11.00;10.00;;;;;20.55;53.94;98326.08;110042;1260;20879;-38
2023/03/10 10:10:59;;;;;;;;;13.00;11.00;;;;;20.54;53.82;98316.21;110018;1266;20188;-41
2023/03/10 10:13:26;;;;;;;;;10.00;10.00;;;;;20.57;53.72;98317.63;110019;1250;21296;-38
2023/03/10 10:15:54;;;;;;;;;12.00;12.00;;;;;20.58;53.58;98321.34;110044;1266;19832;-39
2023/03/10 10:18:21;;;;;;;;;11.00;11.00;;;;;20.56;53.62;98323.54;110049;1266;18700;-39
2023/03/10 10:20:48;;;;;;;;;9.00;9.00;;;;;20.53;53.65;98320.23;110032;1253;23421;-38
2023/03/10 10:23:16;;;;;;;;;12.00;12.00;;;;;20.52;53.79;98316.33;110031;1266;19967;-38
2023/03/10 10:25:43;;;;;;;;;13.00;12.00;;;;;20.51;53.78;98320.17;110041;1266;18729;-38
2023/03/10 10:28:11;;;;;;;;;15.00;12.00;;;;;20.50;53.61;98318.92;110050;1266;19686;-38
2023/03/10 10:30:38;;;;;;;;;14.00;13.00;;;;;20.50;53.65;98316.27;110052;1266;19987;-39
2023/03/10 10:33:06;;;;;;;;;19.00;13.00;;;;;20.49;53.52;98313.21;110032;1254;21475;-38
2023/03/10 10:35:34;;;;;;;;;12.00;12.00;;;;;20.49;53.57;98313.67;109997;1251;19268;-39
2023/03/10 10:38:01;;;;;;;;;13.00;13.00;;;;;20.48;53.56;98308.38;109970;1253;22746;-38
2023/03/10 10:40:29;;;;;;;;;14.33;14.33;;;;;20.48;53.54;98303.11;110055;1266;20392;-38
2023/03/10 10:42:56;;;;;;;;;14.00;12.00;;;;;20.47;53.21;98296.55;110046;1251;20895;-40
2023/03/10 10:45:24;;;;;;;;;13.00;10.00;;;;;20.47;53.23;98292.38;110027;1266;23327;-38
2023/03/10 10:47:51;;;;;;;;;11.50;10.00;;;;;20.50;53.23;98298.59;110037;1266;20052;-39
2023/03/10 10:50:18;;;;;;;;;15.00;12.00;;;;;20.53;53.22;98292.62;110040;1266;20698;-40
2023/03/10 10:52:48;;;;;;;;;16.00;12.00;;;;;20.56;53.59;98286.95;110036;1266;22251;-39
2023/03/10 10:55:15;;;;;;;;;10.00;10.00;;;;;20.56;53.76;98285.27;110016;1266;22011;-40
2023/03/10 10:57:44;;;;;;;;;10.00;9.00;;;;;20.56;53.84;98282.50;110029;1266;20698;-39
2023/03/10 11:00:12;;;;;;;;;10.33;10.33;;;;;20.56;53.95;98279.30;110018;1266;18585;-40
2023/03/10 11:02:40;;;;;;;;;10.00;9.00;;;;;20.54;54.25;98288.35;110015;1266;22392;-41
2023/03/10 11:05:07;;;;;;;;;7.50;7.50;;;;;20.54;54.50;98283.22;110021;1260;21077;-40
2023/03/10 11:07:35;;;;;;;;;9.00;9.00;;;;;20.53;54.62;98280.77;110033;1253;20022;-40
2023/03/10 11:10:02;;;;;;;;;9.00;8.00;;;;;20.54;54.32;98279.95;110022;1250;22919;-40
2023/03/10 11:12:29;;;;;;;;;10.00;9.00;;;;;20.52;54.34;98274.33;110016;1254;21000;-39
2023/03/10 11:14:57;;;;;;;;;9.00;9.00;;;;;20.52;54.14;98274.95;110056;1266;19589;-40
2023/03/10 11:17:24;;;;;;;;;9.00;7.00;;;;;20.51;54.46;98275.31;109958;1266;20005;-41
2023/03/10 11:19:52;;;;;;;;;9.00;9.00;;;;;20.50;54.30;98272.30;110040;1266;21885;-38